sensor_id;sensor_type;location;lat;lon;timestamp;P1;durP1;ratioP1;P2;durP2;ratioP2
5945;SDS011;2998;48.206;16.394;2023-07-31T00:01:29;3.80;;;3.37;;
5945;SDS011;2998;48.206;16.394;2023-07-31T00:04:00;4.23;;;4.03;;
5945;SDS011;2998;48.206;16.394;2023-07-31T00:10:50;4.40;;;3.20;;
5945;SDS011;2998;48.206;16.394;2023-07-31T00:13:20;4.50;;;4.10;;
5945;SDS011;2998;48.206;16.394;2023-07-31T00:20:11;3.90;;;3.70;;
5945;SDS011;2998;48.206;16.394;2023-07-31T00:22:40;4.43;;;4.10;;
5945;SDS011;2998;48.206;16.394;2023-07-31T00:29:27;3.77;;;3.57;;
5945;SDS011;2998;48.206;16.394;2023-07-31T00:31:57;4.10;;;3.90;;
5945;SDS011;2998;48.206;16.394;2023-07-31T00:34:26;4.27;;;3.87;;
5945;SDS011;2998;48.206;16.394;2023-07-31T00:36:57;4.23;;;3.93;;
5945;SDS011;2998;48.206;16.394;2023-07-31T00:39:26;5.00;;;4.60;;
5945;SDS011;2998;48.206;16.394;2023-07-31T00:51:00;4.30;;;4.00;;
5945;SDS011;2998;48.206;16.394;2023-07-31T00:53:31;4.63;;;4.13;;
5945;SDS011;2998;48.206;16.394;2023-07-31T01:00:19;8.50;;;4.20;;
5945;SDS011;2998;48.206;16.394;2023-07-31T01:02:48;4.30;;;4.03;;
5945;SDS011;2998;48.206;16.394;2023-07-31T01:05:18;4.53;;;3.87;;
5945;SDS011;2998;48.206;16.394;2023-07-31T01:07:52;4.13;;;3.80;;
5945;SDS011;2998;48.206;16.394;2023-07-31T01:10:26;4.80;;;4.40;;
5945;SDS011;2998;48.206;16.394;2023-07-31T01:13:01;4.90;;;4.50;;
5945;SDS011;2998;48.206;16.394;2023-07-31T01:15:32;6.23;;;4.40;;
5945;SDS011;2998;48.206;16.394;2023-07-31T01:18:01;11.03;;;5.10;;
5945;SDS011;2998;48.206;16.394;2023-07-31T01:20:31;4.67;;;4.10;;
5945;SDS011;2998;48.206;16.394;2023-07-31T01:30:25;5.73;;;4.43;;
5945;SDS011;2998;48.206;16.394;2023-07-31T01:32:56;9.33;;;4.40;;
5945;SDS011;2998;48.206;16.394;2023-07-31T01:35:25;6.40;;;4.63;;
5945;SDS011;2998;48.206;16.394;2023-07-31T01:42:14;5.07;;;4.10;;
5945;SDS011;2998;48.206;16.394;2023-07-31T01:44:43;4.90;;;4.37;;
5945;SDS011;2998;48.206;16.394;2023-07-31T01:51:40;4.30;;;4.00;;
5945;SDS011;2998;48.206;16.394;2023-07-31T01:54:10;12.73;;;4.87;;
5945;SDS011;2998;48.206;16.394;2023-07-31T02:00:58;6.50;;;4.20;;
5945;SDS011;2998;48.206;16.394;2023-07-31T02:03:27;4.70;;;4.40;;
5945;SDS011;2998;48.206;16.394;2023-07-31T02:05:56;4.50;;;4.20;;
5945;SDS011;2998;48.206;16.394;2023-07-31T02:08:27;5.77;;;4.20;;
5945;SDS011;2998;48.206;16.394;2023-07-31T02:10:56;4.07;;;3.73;;
5945;SDS011;2998;48.206;16.394;2023-07-31T02:21:42;5.17;;;4.80;;
5945;SDS011;2998;48.206;16.394;2023-07-31T02:24:13;6.83;;;4.70;;
5945;SDS011;2998;48.206;16.394;2023-07-31T02:26:42;10.47;;;5.30;;
5945;SDS011;2998;48.206;16.394;2023-07-31T02:29:11;5.33;;;4.83;;
5945;SDS011;2998;48.206;16.394;2023-07-31T02:31:40;6.20;;;5.70;;
5945;SDS011;2998;48.206;16.394;2023-07-31T02:34:10;9.33;;;5.30;;
5945;SDS011;2998;48.206;16.394;2023-07-31T02:36:39;6.10;;;5.50;;
5945;SDS011;2998;48.206;16.394;2023-07-31T02:39:08;7.30;;;4.87;;
5945;SDS011;2998;48.206;16.394;2023-07-31T02:41:39;6.00;;;5.40;;
5945;SDS011;2998;48.206;16.394;2023-07-31T02:44:08;7.93;;;6.10;;
5945;SDS011;2998;48.206;16.394;2023-07-31T02:46:37;9.83;;;6.30;;
5945;SDS011;2998;48.206;16.394;2023-07-31T02:49:07;6.70;;;6.10;;
5945;SDS011;2998;48.206;16.394;2023-07-31T02:51:36;5.23;;;4.93;;
5945;SDS011;2998;48.206;16.394;2023-07-31T02:54:05;7.00;;;5.40;;
5945;SDS011;2998;48.206;16.394;2023-07-31T02:56:34;7.77;;;6.33;;
5945;SDS011;2998;48.206;16.394;2023-07-31T03:03:18;7.93;;;4.47;;
5945;SDS011;2998;48.206;16.394;2023-07-31T03:05:47;7.83;;;3.57;;
5945;SDS011;2998;48.206;16.394;2023-07-31T03:12:22;5.20;;;3.80;;
5945;SDS011;2998;48.206;16.394;2023-07-31T03:14:52;9.20;;;5.53;;
5945;SDS011;2998;48.206;16.394;2023-07-31T03:17:21;4.53;;;4.33;;
5945;SDS011;2998;48.206;16.394;2023-07-31T03:19:52;5.47;;;4.70;;
5945;SDS011;2998;48.206;16.394;2023-07-31T03:22:21;4.27;;;3.97;;
5945;SDS011;2998;48.206;16.394;2023-07-31T03:24:50;8.30;;;6.53;;
5945;SDS011;2998;48.206;16.394;2023-07-31T03:27:20;7.93;;;7.23;;
5945;SDS011;2998;48.206;16.394;2023-07-31T03:29:49;7.03;;;6.40;;
5945;SDS011;2998;48.206;16.394;2023-07-31T03:32:19;6.63;;;5.37;;
5945;SDS011;2998;48.206;16.394;2023-07-31T03:34:49;14.50;;;6.30;;
5945;SDS011;2998;48.206;16.394;2023-07-31T03:37:20;6.17;;;5.53;;
5945;SDS011;2998;48.206;16.394;2023-07-31T03:44:01;4.60;;;4.30;;
5945;SDS011;2998;48.206;16.394;2023-07-31T03:46:30;4.53;;;4.20;;
5945;SDS011;2998;48.206;16.394;2023-07-31T03:53:33;7.30;;;6.70;;
5945;SDS011;2998;48.206;16.394;2023-07-31T03:56:02;4.97;;;4.57;;
5945;SDS011;2998;48.206;16.394;2023-07-31T04:02:44;5.43;;;4.90;;
5945;SDS011;2998;48.206;16.394;2023-07-31T04:05:13;5.43;;;5.00;;
5945;SDS011;2998;48.206;16.394;2023-07-31T04:07:43;5.33;;;4.67;;
5945;SDS011;2998;48.206;16.394;2023-07-31T04:10:13;5.37;;;4.87;;
5945;SDS011;2998;48.206;16.394;2023-07-31T04:12:42;5.60;;;4.47;;
5945;SDS011;2998;48.206;16.394;2023-07-31T04:19:30;4.43;;;4.13;;
5945;SDS011;2998;48.206;16.394;2023-07-31T04:21:59;5.80;;;4.60;;
5945;SDS011;2998;48.206;16.394;2023-07-31T04:28:50;4.40;;;4.00;;
5945;SDS011;2998;48.206;16.394;2023-07-31T04:31:19;4.73;;;4.33;;
5945;SDS011;2998;48.206;16.394;2023-07-31T04:33:49;4.03;;;3.53;;
5945;SDS011;2998;48.206;16.394;2023-07-31T04:36:44;5.77;;;3.80;;
5945;SDS011;2998;48.206;16.394;2023-07-31T04:43:31;5.03;;;4.00;;
5945;SDS011;2998;48.206;16.394;2023-07-31T04:50:20;4.53;;;3.97;;
5945;SDS011;2998;48.206;16.394;2023-07-31T04:52:50;7.57;;;6.00;;
5945;SDS011;2998;48.206;16.394;2023-07-31T04:59:31;4.23;;;3.83;;
5945;SDS011;2998;48.206;16.394;2023-07-31T05:02:01;6.47;;;4.90;;
5945;SDS011;2998;48.206;16.394;2023-07-31T05:08:37;5.63;;;5.20;;
5945;SDS011;2998;48.206;16.394;2023-07-31T05:15:25;4.73;;;4.43;;
5945;SDS011;2998;48.206;16.394;2023-07-31T05:17:54;5.27;;;4.80;;
5945;SDS011;2998;48.206;16.394;2023-07-31T05:24:49;5.63;;;4.50;;
5945;SDS011;2998;48.206;16.394;2023-07-31T05:27:18;8.30;;;4.70;;
5945;SDS011;2998;48.206;16.394;2023-07-31T05:29:47;5.50;;;5.00;;
5945;SDS011;2998;48.206;16.394;2023-07-31T05:32:16;6.77;;;5.00;;
5945;SDS011;2998;48.206;16.394;2023-07-31T05:34:46;4.70;;;4.30;;
5945;SDS011;2998;48.206;16.394;2023-07-31T05:37:15;4.43;;;4.03;;
5945;SDS011;2998;48.206;16.394;2023-07-31T05:39:44;4.70;;;4.30;;
5945;SDS011;2998;48.206;16.394;2023-07-31T05:42:15;5.83;;;5.37;;
5945;SDS011;2998;48.206;16.394;2023-07-31T05:44:44;9.87;;;5.80;;
5945;SDS011;2998;48.206;16.394;2023-07-31T05:55:39;5.30;;;4.80;;
5945;SDS011;2998;48.206;16.394;2023-07-31T05:58:09;9.40;;;4.10;;
5945;SDS011;2998;48.206;16.394;2023-07-31T06:04:51;4.77;;;4.37;;
5945;SDS011;2998;48.206;16.394;2023-07-31T06:07:21;4.03;;;3.73;;
5945;SDS011;2998;48.206;16.394;2023-07-31T06:09:51;6.57;;;3.50;;
5945;SDS011;2998;48.206;16.394;2023-07-31T06:12:21;4.07;;;3.30;;
5945;SDS011;2998;48.206;16.394;2023-07-31T06:14:53;7.30;;;3.07;;
5945;SDS011;2998;48.206;16.394;2023-07-31T06:21:35;4.60;;;2.60;;
5945;SDS011;2998;48.206;16.394;2023-07-31T06:24:05;3.30;;;2.00;;
5945;SDS011;2998;48.206;16.394;2023-07-31T06:31:00;7.13;;;2.83;;
5945;SDS011;2998;48.206;16.394;2023-07-31T06:33:30;2.20;;;2.10;;
5945;SDS011;2998;48.206;16.394;2023-07-31T06:40:07;3.70;;;2.10;;
5945;SDS011;2998;48.206;16.394;2023-07-31T06:51:21;6.70;;;2.10;;
5945;SDS011;2998;48.206;16.394;2023-07-31T06:53:51;2.77;;;2.30;;
5945;SDS011;2998;48.206;16.394;2023-07-31T06:56:20;2.77;;;1.60;;
5945;SDS011;2998;48.206;16.394;2023-07-31T06:59:51;2.40;;;1.90;;
5945;SDS011;2998;48.206;16.394;2023-07-31T07:06:34;3.13;;;1.77;;
5945;SDS011;2998;48.206;16.394;2023-07-31T07:09:04;2.30;;;2.10;;
5945;SDS011;2998;48.206;16.394;2023-07-31T07:11:33;2.23;;;1.83;;
5945;SDS011;2998;48.206;16.394;2023-07-31T07:14:04;7.23;;;1.90;;
5945;SDS011;2998;48.206;16.394;2023-07-31T07:16:34;2.37;;;1.50;;
5945;SDS011;2998;48.206;16.394;2023-07-31T07:19:04;3.30;;;2.10;;
5945;SDS011;2998;48.206;16.394;2023-07-31T07:21:35;2.80;;;1.83;;
5945;SDS011;2998;48.206;16.394;2023-07-31T07:24:04;4.47;;;1.73;;
5945;SDS011;2998;48.206;16.394;2023-07-31T07:26:33;3.33;;;1.40;;
5945;SDS011;2998;48.206;16.394;2023-07-31T07:29:03;2.20;;;1.30;;
5945;SDS011;2998;48.206;16.394;2023-07-31T07:31:35;7.77;;;1.93;;
5945;SDS011;2998;48.206;16.394;2023-07-31T07:34:04;9.63;;;1.63;;
5945;SDS011;2998;48.206;16.394;2023-07-31T07:36:35;3.10;;;1.73;;
5945;SDS011;2998;48.206;16.394;2023-07-31T07:39:05;1.70;;;1.00;;
5945;SDS011;2998;48.206;16.394;2023-07-31T07:41:34;1.83;;;1.73;;
5945;SDS011;2998;48.206;16.394;2023-07-31T07:44:04;1.87;;;1.77;;
5945;SDS011;2998;48.206;16.394;2023-07-31T07:46:33;3.90;;;1.90;;
5945;SDS011;2998;48.206;16.394;2023-07-31T07:49:03;6.07;;;2.43;;
5945;SDS011;2998;48.206;16.394;2023-07-31T07:51:32;2.00;;;1.67;;
5945;SDS011;2998;48.206;16.394;2023-07-31T07:54:04;3.67;;;1.97;;
5945;SDS011;2998;48.206;16.394;2023-07-31T07:56:33;7.57;;;3.10;;
5945;SDS011;2998;48.206;16.394;2023-07-31T07:59:04;6.90;;;1.47;;
5945;SDS011;2998;48.206;16.394;2023-07-31T08:01:34;2.40;;;1.40;;
5945;SDS011;2998;48.206;16.394;2023-07-31T08:08:17;2.47;;;2.00;;
5945;SDS011;2998;48.206;16.394;2023-07-31T08:10:47;1.97;;;1.27;;
5945;SDS011;2998;48.206;16.394;2023-07-31T08:17:28;2.60;;;1.67;;
5945;SDS011;2998;48.206;16.394;2023-07-31T08:19:57;7.27;;;2.30;;
5945;SDS011;2998;48.206;16.394;2023-07-31T08:22:27;4.00;;;1.70;;
5945;SDS011;2998;48.206;16.394;2023-07-31T08:24:58;1.73;;;1.30;;
5945;SDS011;2998;48.206;16.394;2023-07-31T08:27:27;2.37;;;1.17;;
5945;SDS011;2998;48.206;16.394;2023-07-31T08:29:56;6.07;;;1.93;;
5945;SDS011;2998;48.206;16.394;2023-07-31T08:32:26;4.90;;;1.80;;
5945;SDS011;2998;48.206;16.394;2023-07-31T08:34:55;3.63;;;1.67;;
5945;SDS011;2998;48.206;16.394;2023-07-31T08:37:25;2.00;;;1.63;;
5945;SDS011;2998;48.206;16.394;2023-07-31T08:39:54;4.50;;;1.70;;
5945;SDS011;2998;48.206;16.394;2023-07-31T08:42:26;3.53;;;1.90;;
5945;SDS011;2998;48.206;16.394;2023-07-31T08:44:57;2.00;;;1.43;;
5945;SDS011;2998;48.206;16.394;2023-07-31T08:47:27;6.43;;;1.60;;
5945;SDS011;2998;48.206;16.394;2023-07-31T08:49:56;3.53;;;1.60;;
5945;SDS011;2998;48.206;16.394;2023-07-31T08:52:26;1.73;;;1.63;;
5945;SDS011;2998;48.206;16.394;2023-07-31T08:54:55;5.77;;;1.80;;
5945;SDS011;2998;48.206;16.394;2023-07-31T08:57:24;2.70;;;1.40;;
5945;SDS011;2998;48.206;16.394;2023-07-31T08:59:55;3.23;;;1.33;;
5945;SDS011;2998;48.206;16.394;2023-07-31T09:02:25;3.30;;;1.40;;
5945;SDS011;2998;48.206;16.394;2023-07-31T09:09:15;4.20;;;2.03;;
5945;SDS011;2998;48.206;16.394;2023-07-31T09:11:46;1.80;;;1.60;;
5945;SDS011;2998;48.206;16.394;2023-07-31T09:18:36;3.80;;;1.43;;
5945;SDS011;2998;48.206;16.394;2023-07-31T09:21:22;2.37;;;1.70;;
5945;SDS011;2998;48.206;16.394;2023-07-31T09:28:10;2.73;;;1.67;;
5945;SDS011;2998;48.206;16.394;2023-07-31T09:30:47;4.57;;;2.00;;
5945;SDS011;2998;48.206;16.394;2023-07-31T09:33:18;2.27;;;1.67;;
5945;SDS011;2998;48.206;16.394;2023-07-31T09:35:49;2.90;;;1.80;;
5945;SDS011;2998;48.206;16.394;2023-07-31T09:38:19;2.70;;;1.77;;
5945;SDS011;2998;48.206;16.394;2023-07-31T09:40:48;6.10;;;1.93;;
5945;SDS011;2998;48.206;16.394;2023-07-31T09:43:18;4.90;;;1.80;;
5945;SDS011;2998;48.206;16.394;2023-07-31T09:45:48;2.43;;;1.80;;
5945;SDS011;2998;48.206;16.394;2023-07-31T09:48:23;2.23;;;1.87;;
5945;SDS011;2998;48.206;16.394;2023-07-31T09:50:56;2.30;;;1.67;;
5945;SDS011;2998;48.206;16.394;2023-07-31T09:53:33;5.93;;;1.83;;
5945;SDS011;2998;48.206;16.394;2023-07-31T09:56:02;2.13;;;1.93;;
5945;SDS011;2998;48.206;16.394;2023-07-31T09:58:33;2.30;;;1.70;;
5945;SDS011;2998;48.206;16.394;2023-07-31T10:01:04;2.97;;;1.50;;
5945;SDS011;2998;48.206;16.394;2023-07-31T10:03:33;2.30;;;1.83;;
5945;SDS011;2998;48.206;16.394;2023-07-31T10:06:04;2.20;;;1.60;;
5945;SDS011;2998;48.206;16.394;2023-07-31T10:08:35;1.30;;;1.20;;
5945;SDS011;2998;48.206;16.394;2023-07-31T10:11:05;3.73;;;1.93;;
5945;SDS011;2998;48.206;16.394;2023-07-31T10:13:36;2.80;;;1.60;;
5945;SDS011;2998;48.206;16.394;2023-07-31T10:16:05;3.40;;;1.70;;
5945;SDS011;2998;48.206;16.394;2023-07-31T10:18:35;2.43;;;1.60;;
5945;SDS011;2998;48.206;16.394;2023-07-31T10:21:06;5.83;;;1.77;;
5945;SDS011;2998;48.206;16.394;2023-07-31T10:23:36;1.73;;;1.40;;
5945;SDS011;2998;48.206;16.394;2023-07-31T10:26:05;2.97;;;1.40;;
5945;SDS011;2998;48.206;16.394;2023-07-31T10:28:36;2.80;;;1.60;;
5945;SDS011;2998;48.206;16.394;2023-07-31T10:31:06;4.23;;;1.60;;
5945;SDS011;2998;48.206;16.394;2023-07-31T10:33:36;1.83;;;1.53;;
5945;SDS011;2998;48.206;16.394;2023-07-31T10:40:33;2.17;;;1.40;;
5945;SDS011;2998;48.206;16.394;2023-07-31T10:43:03;1.70;;;1.60;;
5945;SDS011;2998;48.206;16.394;2023-07-31T10:54:38;3.23;;;1.40;;
5945;SDS011;2998;48.206;16.394;2023-07-31T10:57:20;1.53;;;1.43;;
5945;SDS011;2998;48.206;16.394;2023-07-31T10:59:50;2.00;;;1.60;;
5945;SDS011;2998;48.206;16.394;2023-07-31T11:02:38;3.27;;;1.90;;
5945;SDS011;2998;48.206;16.394;2023-07-31T11:09:27;2.30;;;1.50;;
5945;SDS011;2998;48.206;16.394;2023-07-31T11:16:12;2.60;;;1.43;;
5945;SDS011;2998;48.206;16.394;2023-07-31T11:18:43;4.00;;;1.50;;
5945;SDS011;2998;48.206;16.394;2023-07-31T11:25:33;1.80;;;1.60;;
5945;SDS011;2998;48.206;16.394;2023-07-31T11:28:03;1.60;;;1.50;;
5945;SDS011;2998;48.206;16.394;2023-07-31T11:34:59;2.23;;;1.30;;
5945;SDS011;2998;48.206;16.394;2023-07-31T11:37:38;3.13;;;1.57;;
5945;SDS011;2998;48.206;16.394;2023-07-31T11:40:09;3.60;;;1.77;;
5945;SDS011;2998;48.206;16.394;2023-07-31T11:42:39;7.40;;;1.63;;
5945;SDS011;2998;48.206;16.394;2023-07-31T11:45:08;1.70;;;1.60;;
5945;SDS011;2998;48.206;16.394;2023-07-31T11:56:41;2.70;;;1.87;;
5945;SDS011;2998;48.206;16.394;2023-07-31T11:59:13;1.90;;;1.73;;
5945;SDS011;2998;48.206;16.394;2023-07-31T12:05:55;5.90;;;1.90;;
5945;SDS011;2998;48.206;16.394;2023-07-31T12:08:24;2.03;;;1.20;;
5945;SDS011;2998;48.206;16.394;2023-07-31T12:10:54;4.03;;;3.60;;
5945;SDS011;2998;48.206;16.394;2023-07-31T12:13:33;2.67;;;1.67;;
5945;SDS011;2998;48.206;16.394;2023-07-31T12:16:03;4.43;;;1.97;;
5945;SDS011;2998;48.206;16.394;2023-07-31T12:18:33;3.03;;;1.80;;
5945;SDS011;2998;48.206;16.394;2023-07-31T12:21:04;2.30;;;2.07;;
5945;SDS011;2998;48.206;16.394;2023-07-31T12:27:54;4.27;;;1.80;;
5945;SDS011;2998;48.206;16.394;2023-07-31T12:30:28;2.93;;;1.80;;
5945;SDS011;2998;48.206;16.394;2023-07-31T12:37:16;1.63;;;1.53;;
5945;SDS011;2998;48.206;16.394;2023-07-31T12:39:45;6.73;;;2.13;;
5945;SDS011;2998;48.206;16.394;2023-07-31T12:46:35;1.70;;;1.60;;
5945;SDS011;2998;48.206;16.394;2023-07-31T14:57:25;2.27;;;2.07;;
5945;SDS011;2998;48.206;16.394;2023-07-31T15:04:19;2.00;;;1.90;;
5945;SDS011;2998;48.206;16.394;2023-07-31T15:06:49;1.93;;;1.83;;
5945;SDS011;2998;48.206;16.394;2023-07-31T15:13:45;1.90;;;1.80;;
5945;SDS011;2998;48.206;16.394;2023-07-31T15:16:15;4.70;;;2.50;;
5945;SDS011;2998;48.206;16.394;2023-07-31T15:18:44;2.43;;;2.20;;
5945;SDS011;2998;48.206;16.394;2023-07-31T15:21:14;2.90;;;2.70;;
5945;SDS011;2998;48.206;16.394;2023-07-31T15:23:43;3.00;;;2.00;;
5945;SDS011;2998;48.206;16.394;2023-07-31T15:30:33;3.80;;;2.93;;
5945;SDS011;2998;48.206;16.394;2023-07-31T15:33:02;2.97;;;2.27;;
5945;SDS011;2998;48.206;16.394;2023-07-31T15:39:50;1.70;;;1.60;;
5945;SDS011;2998;48.206;16.394;2023-07-31T15:42:20;2.20;;;2.10;;
5945;SDS011;2998;48.206;16.394;2023-07-31T15:49:16;2.60;;;1.70;;
5945;SDS011;2998;48.206;16.394;2023-07-31T15:56:04;2.23;;;2.07;;
5945;SDS011;2998;48.206;16.394;2023-07-31T15:58:33;2.13;;;2.03;;
5945;SDS011;2998;48.206;16.394;2023-07-31T16:05:22;2.80;;;1.70;;
5945;SDS011;2998;48.206;16.394;2023-07-31T16:07:52;2.87;;;2.20;;
5945;SDS011;2998;48.206;16.394;2023-07-31T16:14:46;2.33;;;2.20;;
5945;SDS011;2998;48.206;16.394;2023-07-31T16:21:35;2.23;;;2.13;;
5945;SDS011;2998;48.206;16.394;2023-07-31T16:24:05;2.47;;;2.27;;
5945;SDS011;2998;48.206;16.394;2023-07-31T16:30:52;3.47;;;2.30;;
5945;SDS011;2998;48.206;16.394;2023-07-31T16:33:22;3.53;;;1.90;;
5945;SDS011;2998;48.206;16.394;2023-07-31T16:35:51;2.23;;;2.00;;
5945;SDS011;2998;48.206;16.394;2023-07-31T16:39:24;3.60;;;2.27;;
5945;SDS011;2998;48.206;16.394;2023-07-31T16:46:11;2.30;;;2.20;;
5945;SDS011;2998;48.206;16.394;2023-07-31T16:48:40;3.47;;;2.73;;
5945;SDS011;2998;48.206;16.394;2023-07-31T16:51:10;2.13;;;2.03;;
5945;SDS011;2998;48.206;16.394;2023-07-31T16:54:25;4.03;;;2.60;;
5945;SDS011;2998;48.206;16.394;2023-07-31T17:01:18;1.93;;;1.83;;
5945;SDS011;2998;48.206;16.394;2023-07-31T17:03:50;2.47;;;2.00;;
5945;SDS011;2998;48.206;16.394;2023-07-31T17:06:19;2.00;;;1.80;;
5945;SDS011;2998;48.206;16.394;2023-07-31T17:08:49;5.87;;;2.27;;
5945;SDS011;2998;48.206;16.394;2023-07-31T17:11:20;2.50;;;2.30;;
5945;SDS011;2998;48.206;16.394;2023-07-31T17:13:50;3.63;;;2.60;;
5945;SDS011;2998;48.206;16.394;2023-07-31T17:16:20;4.83;;;3.10;;
5945;SDS011;2998;48.206;16.394;2023-07-31T17:18:49;10.03;;;3.10;;
5945;SDS011;2998;48.206;16.394;2023-07-31T17:21:19;3.50;;;3.30;;
5945;SDS011;2998;48.206;16.394;2023-07-31T17:23:48;3.67;;;3.37;;
5945;SDS011;2998;48.206;16.394;2023-07-31T17:26:17;6.40;;;4.13;;
5945;SDS011;2998;48.206;16.394;2023-07-31T17:28:49;3.50;;;3.30;;
5945;SDS011;2998;48.206;16.394;2023-07-31T17:31:19;3.07;;;2.87;;
5945;SDS011;2998;48.206;16.394;2023-07-31T17:33:50;2.70;;;2.60;;
5945;SDS011;2998;48.206;16.394;2023-07-31T17:36:20;2.80;;;2.60;;
5945;SDS011;2998;48.206;16.394;2023-07-31T17:38:49;3.20;;;3.00;;
5945;SDS011;2998;48.206;16.394;2023-07-31T17:41:20;2.30;;;2.20;;
5945;SDS011;2998;48.206;16.394;2023-07-31T17:48:16;3.83;;;2.53;;
5945;SDS011;2998;48.206;16.394;2023-07-31T17:50:48;2.43;;;2.23;;
5945;SDS011;2998;48.206;16.394;2023-07-31T18:02:03;2.97;;;2.37;;
5945;SDS011;2998;48.206;16.394;2023-07-31T18:04:33;3.07;;;2.77;;
5945;SDS011;2998;48.206;16.394;2023-07-31T18:07:03;2.33;;;2.13;;
5945;SDS011;2998;48.206;16.394;2023-07-31T18:09:33;2.70;;;1.87;;
5945;SDS011;2998;48.206;16.394;2023-07-31T18:12:02;2.50;;;2.30;;
5945;SDS011;2998;48.206;16.394;2023-07-31T18:14:32;3.17;;;2.50;;
5945;SDS011;2998;48.206;16.394;2023-07-31T18:21:15;3.10;;;2.80;;
5945;SDS011;2998;48.206;16.394;2023-07-31T18:28:03;5.87;;;2.70;;
5945;SDS011;2998;48.206;16.394;2023-07-31T18:30:32;4.03;;;3.13;;
5945;SDS011;2998;48.206;16.394;2023-07-31T18:33:02;6.23;;;2.40;;
5945;SDS011;2998;48.206;16.394;2023-07-31T18:36:51;6.23;;;3.17;;
5945;SDS011;2998;48.206;16.394;2023-07-31T18:43:39;4.30;;;2.57;;
5945;SDS011;2998;48.206;16.394;2023-07-31T18:46:08;3.27;;;3.07;;
5945;SDS011;2998;48.206;16.394;2023-07-31T18:52:58;3.70;;;3.40;;
5945;SDS011;2998;48.206;16.394;2023-07-31T18:55:28;2.93;;;2.60;;
5945;SDS011;2998;48.206;16.394;2023-07-31T18:57:59;4.20;;;3.00;;
5945;SDS011;2998;48.206;16.394;2023-07-31T19:04:40;3.07;;;2.87;;
5945;SDS011;2998;48.206;16.394;2023-07-31T19:07:10;3.40;;;3.10;;
5945;SDS011;2998;48.206;16.394;2023-07-31T19:14:05;5.53;;;3.37;;
5945;SDS011;2998;48.206;16.394;2023-07-31T19:16:35;3.17;;;2.90;;
5945;SDS011;2998;48.206;16.394;2023-07-31T19:23:17;4.00;;;3.70;;
5945;SDS011;2998;48.206;16.394;2023-07-31T19:30:12;6.10;;;3.73;;
5945;SDS011;2998;48.206;16.394;2023-07-31T19:32:42;4.67;;;4.30;;
5945;SDS011;2998;48.206;16.394;2023-07-31T19:39:23;4.10;;;3.80;;
5945;SDS011;2998;48.206;16.394;2023-07-31T19:41:52;5.30;;;3.40;;
5945;SDS011;2998;48.206;16.394;2023-07-31T19:44:22;3.50;;;3.30;;
5945;SDS011;2998;48.206;16.394;2023-07-31T19:47:48;4.43;;;4.03;;
5945;SDS011;2998;48.206;16.394;2023-07-31T19:54:37;3.80;;;3.53;;
5945;SDS011;2998;48.206;16.394;2023-07-31T19:57:06;5.90;;;4.17;;
5945;SDS011;2998;48.206;16.394;2023-07-31T19:59:35;6.07;;;3.70;;
5945;SDS011;2998;48.206;16.394;2023-07-31T20:02:05;3.90;;;3.60;;
5945;SDS011;2998;48.206;16.394;2023-07-31T20:04:36;4.10;;;3.70;;
5945;SDS011;2998;48.206;16.394;2023-07-31T20:07:06;5.00;;;4.00;;
5945;SDS011;2998;48.206;16.394;2023-07-31T20:09:35;3.53;;;3.23;;
5945;SDS011;2998;48.206;16.394;2023-07-31T20:12:05;5.10;;;4.47;;
5945;SDS011;2998;48.206;16.394;2023-07-31T20:14:35;5.47;;;5.07;;
5945;SDS011;2998;48.206;16.394;2023-07-31T20:17:04;5.53;;;5.03;;
5945;SDS011;2998;48.206;16.394;2023-07-31T20:19:35;6.63;;;6.03;;
5945;SDS011;2998;48.206;16.394;2023-07-31T20:22:05;6.30;;;5.70;;
5945;SDS011;2998;48.206;16.394;2023-07-31T20:24:34;4.97;;;4.67;;
5945;SDS011;2998;48.206;16.394;2023-07-31T20:27:03;5.50;;;5.10;;
5945;SDS011;2998;48.206;16.394;2023-07-31T20:29:33;8.40;;;7.60;;
5945;SDS011;2998;48.206;16.394;2023-07-31T20:36:22;5.97;;;4.97;;
5945;SDS011;2998;48.206;16.394;2023-07-31T20:38:53;3.73;;;3.53;;
5945;SDS011;2998;48.206;16.394;2023-07-31T20:45:41;5.30;;;4.80;;
5945;SDS011;2998;48.206;16.394;2023-07-31T20:48:10;5.37;;;4.97;;
5945;SDS011;2998;48.206;16.394;2023-07-31T20:55:00;7.70;;;5.57;;
5945;SDS011;2998;48.206;16.394;2023-07-31T21:01:47;4.57;;;4.23;;
5945;SDS011;2998;48.206;16.394;2023-07-31T21:04:17;6.50;;;5.93;;
5945;SDS011;2998;48.206;16.394;2023-07-31T21:11:12;4.27;;;3.90;;
5945;SDS011;2998;48.206;16.394;2023-07-31T21:13:42;4.83;;;3.50;;
5945;SDS011;2998;48.206;16.394;2023-07-31T21:20:32;4.10;;;3.80;;
5945;SDS011;2998;48.206;16.394;2023-07-31T21:23:02;5.57;;;5.00;;
5945;SDS011;2998;48.206;16.394;2023-07-31T21:25:34;6.30;;;5.07;;
5945;SDS011;2998;48.206;16.394;2023-07-31T21:28:05;4.90;;;4.60;;
5945;SDS011;2998;48.206;16.394;2023-07-31T21:30:34;5.23;;;4.83;;
5945;SDS011;2998;48.206;16.394;2023-07-31T21:33:03;5.13;;;4.67;;
5945;SDS011;2998;48.206;16.394;2023-07-31T21:35:33;5.30;;;4.90;;
5945;SDS011;2998;48.206;16.394;2023-07-31T21:42:14;6.53;;;4.37;;
5945;SDS011;2998;48.206;16.394;2023-07-31T21:44:46;4.13;;;3.73;;
5945;SDS011;2998;48.206;16.394;2023-07-31T21:51:27;3.70;;;3.40;;
5945;SDS011;2998;48.206;16.394;2023-07-31T21:53:56;6.17;;;3.97;;
5945;SDS011;2998;48.206;16.394;2023-07-31T21:56:26;3.40;;;3.20;;
5945;SDS011;2998;48.206;16.394;2023-07-31T21:58:55;3.83;;;3.63;;
5945;SDS011;2998;48.206;16.394;2023-07-31T22:01:26;4.23;;;3.83;;
5945;SDS011;2998;48.206;16.394;2023-07-31T22:03:55;4.63;;;4.20;;
5945;SDS011;2998;48.206;16.394;2023-07-31T22:06:25;3.60;;;3.30;;
5945;SDS011;2998;48.206;16.394;2023-07-31T22:08:54;4.93;;;4.47;;
5945;SDS011;2998;48.206;16.394;2023-07-31T22:11:23;3.90;;;3.60;;
5945;SDS011;2998;48.206;16.394;2023-07-31T22:13:52;5.17;;;3.57;;
5945;SDS011;2998;48.206;16.394;2023-07-31T22:16:22;4.20;;;3.87;;
5945;SDS011;2998;48.206;16.394;2023-07-31T22:18:52;4.30;;;4.00;;
5945;SDS011;2998;48.206;16.394;2023-07-31T22:21:22;6.77;;;4.47;;
5945;SDS011;2998;48.206;16.394;2023-07-31T22:28:03;5.53;;;4.80;;
5945;SDS011;2998;48.206;16.394;2023-07-31T22:30:47;3.50;;;3.30;;
5945;SDS011;2998;48.206;16.394;2023-07-31T22:37:36;5.00;;;3.23;;
5945;SDS011;2998;48.206;16.394;2023-07-31T22:40:06;4.83;;;4.53;;
5945;SDS011;2998;48.206;16.394;2023-07-31T22:46:56;3.87;;;3.57;;
5945;SDS011;2998;48.206;16.394;2023-07-31T22:49:25;4.47;;;4.10;;
5945;SDS011;2998;48.206;16.394;2023-07-31T22:51:55;4.13;;;3.70;;
5945;SDS011;2998;48.206;16.394;2023-07-31T22:54:25;4.57;;;4.20;;
5945;SDS011;2998;48.206;16.394;2023-07-31T22:56:55;5.93;;;4.03;;
5945;SDS011;2998;48.206;16.394;2023-07-31T22:59:24;4.63;;;4.23;;
5945;SDS011;2998;48.206;16.394;2023-07-31T23:01:53;4.53;;;4.23;;
5945;SDS011;2998;48.206;16.394;2023-07-31T23:08:41;4.93;;;4.20;;
5945;SDS011;2998;48.206;16.394;2023-07-31T23:11:12;5.50;;;5.00;;
5945;SDS011;2998;48.206;16.394;2023-07-31T23:18:01;6.23;;;3.90;;
5945;SDS011;2998;48.206;16.394;2023-07-31T23:20:32;4.23;;;3.63;;
5945;SDS011;2998;48.206;16.394;2023-07-31T23:27:22;4.13;;;3.83;;
5945;SDS011;2998;48.206;16.394;2023-07-31T23:34:04;3.83;;;3.53;;
5945;SDS011;2998;48.206;16.394;2023-07-31T23:36:33;6.00;;;4.20;;
5945;SDS011;2998;48.206;16.394;2023-07-31T23:43:23;5.47;;;5.10;;
5945;SDS011;2998;48.206;16.394;2023-07-31T23:45:53;5.50;;;5.00;;
5945;SDS011;2998;48.206;16.394;2023-07-31T23:52:40;4.77;;;4.37;;
